createdAt,value
2022-11-17T00:01:21.627Z,98900.91
2022-11-17T00:03:49.554Z,98900.72
2022-11-17T00:06:20.324Z,98892.03
2022-11-17T00:08:47.624Z,98895.22
2022-11-17T00:11:14.248Z,98889.66
2022-11-17T00:13:59.193Z,98893.47
2022-11-17T00:16:25.724Z,98890.63
2022-11-17T00:19:10.882Z,98886.59
2022-11-17T00:21:37.702Z,98888.38
2022-11-17T00:24:04.347Z,98896.72
2022-11-17T00:26:33.141Z,98896.63
2022-11-17T00:29:05.045Z,98884.09
2022-11-17T00:31:52.768Z,98887.34
2022-11-17T00:34:22.044Z,98880.09
2022-11-17T00:36:51.022Z,98895.34
2022-11-17T00:39:20.267Z,98891.97
2022-11-17T00:41:47.085Z,98886.94
2022-11-17T00:44:14.512Z,98890.09
2022-11-17T00:46:41.892Z,98888.97
2022-11-17T00:49:10.224Z,98885.25
2022-11-17T00:51:37.364Z,98883.75
2022-11-17T00:54:05.940Z,98872.63
2022-11-17T00:56:32.596Z,98869.34
2022-11-17T00:58:59.657Z,98874.75
2022-11-17T01:01:26.374Z,98878.34
2022-11-17T01:04:02.924Z,98879.63
2022-11-17T01:06:35.853Z,98881.69
2022-11-17T01:09:04.937Z,98886.75
2022-11-17T01:11:31.999Z,98878.72
2022-11-17T01:14:00.188Z,98874.03
2022-11-17T01:16:27.931Z,98873.72
2022-11-17T01:18:54.517Z,98871.31
2022-11-17T01:21:25.869Z,98870.38
2022-11-17T01:23:54.853Z,98868.69
2022-11-17T01:26:24.558Z,98872.47
2022-11-17T01:28:52.061Z,98865.06
2022-11-17T01:31:23.934Z,98868.13
2022-11-17T01:33:50.627Z,98862.81
2022-11-17T01:36:22.712Z,98859.53
2022-11-17T01:38:49.622Z,98858.91
2022-11-17T01:41:17.657Z,98856.91
2022-11-17T01:43:51.038Z,98855.88
2022-11-17T01:46:27.146Z,98864.19
2022-11-17T01:49:00.473Z,98855.63
2022-11-17T01:51:30.014Z,98857.00
2022-11-17T01:53:56.402Z,98857.41
2022-11-17T01:56:31.331Z,98856.16
2022-11-17T01:59:09.047Z,98856.38
2022-11-17T02:01:55.497Z,98858.03
2022-11-17T02:04:27.259Z,98844.41
2022-11-17T02:07:01.268Z,98849.44
2022-11-17T02:09:28.272Z,98854.94
2022-11-17T02:11:58.758Z,98849.53
2022-11-17T02:14:25.294Z,98840.63
2022-11-17T02:16:51.861Z,98829.13
2022-11-17T02:19:21.158Z,98832.16
2022-11-17T02:21:50.665Z,98836.25
2022-11-17T02:24:23.173Z,98839.91
2022-11-17T02:27:01.198Z,98843.44
2022-11-17T02:29:39.576Z,98829.25
2022-11-17T02:32:27.995Z,98830.28
2022-11-17T02:35:15.807Z,98830.44
2022-11-17T02:37:48.285Z,98826.72
2022-11-17T02:40:23.552Z,98829.34
2022-11-17T02:43:19.004Z,98833.25
2022-11-17T02:45:50.294Z,98836.19
2022-11-17T02:48:25.276Z,98828.78
2022-11-17T02:50:54.686Z,98833.44
2022-11-17T02:53:24.176Z,98834.41
2022-11-17T02:55:51.400Z,98834.75
2022-11-17T02:58:18.357Z,98844.94
2022-11-17T03:00:54.219Z,98837.59
2022-11-17T03:03:42.017Z,98833.47
2022-11-17T03:06:51.573Z,98822.44
2022-11-17T03:09:30.173Z,98817.84
2022-11-17T03:12:21.962Z,98819.81
2022-11-17T03:15:10.386Z,98814.66
2022-11-17T03:17:44.643Z,98814.03
2022-11-17T03:20:20.457Z,98818.13
2022-11-17T03:22:52.734Z,98816.72
2022-11-17T03:25:23.185Z,98813.38
2022-11-17T03:27:55.951Z,98817.84
2022-11-17T03:30:24.480Z,98812.81
2022-11-17T03:32:55.753Z,98811.88
2022-11-17T03:35:27.893Z,98815.16
2022-11-17T03:37:58.276Z,98801.97
2022-11-17T03:40:29.171Z,98804.31
2022-11-17T03:43:00.542Z,98801.41
2022-11-17T03:45:30.111Z,98807.38
2022-11-17T03:48:02.871Z,98806.72
2022-11-17T03:50:36.883Z,98808.66
2022-11-17T03:53:05.079Z,98814.19
2022-11-17T03:55:41.590Z,98805.47
2022-11-17T03:58:14.666Z,98811.91
2022-11-17T04:00:43.125Z,98800.91
2022-11-17T04:03:09.799Z,98803.56
2022-11-17T04:05:36.331Z,98798.97
2022-11-17T04:08:02.804Z,98804.97
2022-11-17T04:10:29.275Z,98800.75
2022-11-17T04:13:14.412Z,98801.78
2022-11-17T04:15:59.320Z,98804.50
2022-11-17T04:18:26.973Z,98797.47
2022-11-17T04:20:56.217Z,98789.16
2022-11-17T04:23:24.182Z,98778.88
2022-11-17T04:26:14.495Z,98783.53
2022-11-17T04:28:44.869Z,98788.03
2022-11-17T04:31:27.317Z,98790.88
2022-11-17T04:33:56.378Z,98789.72
2022-11-17T04:36:25.966Z,98800.28
2022-11-17T04:38:55.043Z,98792.31
2022-11-17T04:41:42.123Z,98785.09
2022-11-17T04:44:10.250Z,98785.19
2022-11-17T04:46:38.737Z,98770.44
2022-11-17T04:49:05.763Z,98779.25
2022-11-17T04:51:33.274Z,98776.94
2022-11-17T04:54:00.693Z,98780.28
2022-11-17T04:56:27.651Z,98777.00
2022-11-17T04:58:54.110Z,98761.69
2022-11-17T05:01:22.380Z,98768.19
2022-11-17T05:03:57.229Z,98768.50
2022-11-17T05:06:29.648Z,98766.41
2022-11-17T05:08:56.597Z,98766.25
2022-11-17T05:11:45.117Z,98763.94
2022-11-17T05:14:13.309Z,98766.34
2022-11-17T05:17:00.528Z,98764.09
2022-11-17T05:19:31.235Z,98754.75
2022-11-17T05:21:57.801Z,98751.22
2022-11-17T05:24:24.406Z,98749.50
2022-11-17T05:26:50.971Z,98740.81
2022-11-17T05:29:20.010Z,98736.19
2022-11-17T05:31:46.926Z,98744.72
2022-11-17T05:34:17.347Z,98756.06
2022-11-17T05:36:44.333Z,98744.50
2022-11-17T05:39:10.904Z,98742.91
2022-11-17T05:41:37.407Z,98743.31
2022-11-17T05:44:04.728Z,98732.97
2022-11-17T05:46:31.289Z,98737.16
2022-11-17T05:48:57.894Z,98729.47
2022-11-17T05:51:24.639Z,98738.00
2022-11-17T05:53:51.226Z,98740.38
2022-11-17T05:56:29.899Z,98736.78
2022-11-17T05:59:17.460Z,98740.59
2022-11-17T06:02:04.790Z,98742.44
2022-11-17T06:04:31.526Z,98750.31
2022-11-17T06:07:00.046Z,98746.34
2022-11-17T06:09:31.325Z,98744.13
2022-11-17T06:12:02.564Z,98752.09
2022-11-17T06:14:32.474Z,98740.72
2022-11-17T06:17:04.701Z,98744.72
2022-11-17T06:19:38.554Z,98742.00
2022-11-17T06:22:12.135Z,98739.72
2022-11-17T06:24:41.706Z,98738.03
2022-11-17T06:27:08.377Z,98727.88
2022-11-17T06:29:39.423Z,98736.19
2022-11-17T06:32:09.527Z,98737.09
2022-11-17T06:34:36.172Z,98737.22
2022-11-17T06:37:02.761Z,98736.72
2022-11-17T06:39:29.264Z,98733.56
2022-11-17T06:41:55.765Z,98733.47
2022-11-17T06:44:22.246Z,98744.56
2022-11-17T06:46:49.277Z,98735.28
2022-11-17T06:49:16.056Z,98739.16
2022-11-17T06:51:45.408Z,98728.16
2022-11-17T06:54:14.632Z,98718.84
2022-11-17T06:56:41.771Z,98726.38
2022-11-17T06:59:08.355Z,98723.63
2022-11-17T07:01:35.046Z,98721.56
2022-11-17T07:04:01.623Z,98711.91
2022-11-17T07:06:28.160Z,98708.72
2022-11-17T07:08:54.764Z,98720.31
2022-11-17T07:11:21.366Z,98717.03
2022-11-17T07:13:47.883Z,98719.81
2022-11-17T07:16:23.015Z,98727.22
2022-11-17T07:18:50.067Z,98728.72
2022-11-17T07:21:16.639Z,98722.41
2022-11-17T07:23:44.822Z,98729.00
2022-11-17T07:26:11.866Z,98719.41
2022-11-17T07:28:38.811Z,98712.22
2022-11-17T07:31:08.014Z,98715.91
2022-11-17T07:33:35.520Z,98715.22
2022-11-17T07:36:07.226Z,98705.19
2022-11-17T07:38:35.249Z,98711.47
2022-11-17T07:41:04.180Z,98713.78
2022-11-17T07:43:31.335Z,98710.66
2022-11-17T07:45:57.911Z,98710.97
2022-11-17T07:48:24.568Z,98711.09
2022-11-17T07:50:51.149Z,98712.88
2022-11-17T07:53:17.948Z,98710.56
2022-11-17T07:55:44.783Z,98716.78
2022-11-17T07:58:11.575Z,98722.22
2022-11-17T08:00:38.179Z,98717.19
2022-11-17T08:03:05.053Z,98722.31
2022-11-17T08:05:41.641Z,98716.34
2022-11-17T08:08:09.818Z,98715.09
2022-11-17T08:10:36.438Z,98714.25
2022-11-17T08:13:03.001Z,98712.13
2022-11-17T08:15:30.043Z,98713.09
2022-11-17T08:17:59.851Z,98707.63
2022-11-17T08:20:28.687Z,98708.59
2022-11-17T08:22:55.969Z,98696.91
2022-11-17T08:25:24.451Z,98702.28
2022-11-17T08:27:55.150Z,98700.81
2022-11-17T08:30:22.633Z,98706.47
2022-11-17T08:32:52.526Z,98702.81
2022-11-17T08:35:21.143Z,98711.00
2022-11-17T08:37:47.938Z,98702.91
2022-11-17T08:40:15.025Z,98690.00
2022-11-17T08:42:42.064Z,98696.72
2022-11-17T08:45:09.965Z,98693.16
2022-11-17T08:47:37.523Z,98696.25
2022-11-17T08:50:06.166Z,98700.59
2022-11-17T08:52:32.829Z,98708.78
2022-11-17T08:54:59.460Z,98699.13
2022-11-17T08:57:26.117Z,98702.28
2022-11-17T08:59:52.641Z,98710.63
2022-11-17T09:02:19.215Z,98705.31
2022-11-17T09:04:46.562Z,98709.38
2022-11-17T09:07:13.447Z,98712.09
2022-11-17T09:09:40.103Z,98714.50
2022-11-17T09:12:06.746Z,98726.19
2022-11-17T09:14:33.447Z,98736.66
2022-11-17T09:16:59.977Z,98731.69
2022-11-17T09:19:26.874Z,98724.53
2022-11-17T09:21:53.376Z,98721.75
2022-11-17T09:24:19.859Z,98725.97
2022-11-17T09:26:46.415Z,98715.75
2022-11-17T09:29:13.069Z,98714.88
2022-11-17T09:31:39.624Z,98709.97
2022-11-17T09:34:06.349Z,98714.50
2022-11-17T09:36:33.799Z,98718.31
2022-11-17T09:39:00.996Z,98698.59
2022-11-17T09:41:51.599Z,98716.03
2022-11-17T09:44:34.303Z,98710.34
2022-11-17T09:47:06.162Z,98709.94
2022-11-17T09:49:56.755Z,98706.66
2022-11-17T09:52:53.823Z,98696.97
2022-11-17T09:55:20.277Z,98705.75
2022-11-17T09:57:52.114Z,98709.47
2022-11-17T10:00:19.547Z,98707.88
2022-11-17T10:02:47.709Z,98709.56
2022-11-17T10:05:26.151Z,98706.41
2022-11-17T10:07:54.960Z,98707.47
2022-11-17T10:10:35.135Z,98690.69
2022-11-17T10:13:04.862Z,98693.22
2022-11-17T10:15:42.436Z,98682.03
2022-11-17T10:18:13.639Z,98674.94
2022-11-17T10:20:41.340Z,98678.97
2022-11-17T10:23:13.610Z,98681.88
2022-11-17T10:25:55.720Z,98685.09
2022-11-17T10:28:31.152Z,98681.69
2022-11-17T10:31:01.501Z,98678.03
2022-11-17T10:33:53.765Z,98670.34
2022-11-17T10:36:28.820Z,98660.41
2022-11-17T10:38:57.545Z,98654.59
2022-11-17T10:41:26.949Z,98650.69
2022-11-17T10:44:04.373Z,98647.78
2022-11-17T10:46:41.547Z,98634.81
2022-11-17T10:49:34.167Z,98640.16
2022-11-17T10:52:23.317Z,98643.41
2022-11-17T10:54:49.959Z,98645.16
2022-11-17T10:57:26.689Z,98640.44
2022-11-17T10:59:57.585Z,98649.28
2022-11-17T11:02:31.153Z,98642.97
2022-11-17T11:05:19.904Z,98642.63
2022-11-17T11:07:46.648Z,98644.78
2022-11-17T11:10:20.298Z,98646.34
2022-11-17T11:13:31.279Z,98639.53
2022-11-17T11:15:57.857Z,98647.53
2022-11-17T11:18:27.647Z,98647.91
2022-11-17T11:21:09.005Z,98657.13
2022-11-17T11:23:39.695Z,98649.16
2022-11-17T11:26:27.481Z,98652.16
2022-11-17T11:29:03.939Z,98653.78
2022-11-17T11:31:42.498Z,98648.50
2022-11-17T11:34:15.349Z,98643.09
2022-11-17T11:36:53.949Z,98636.19
2022-11-17T11:39:44.000Z,98623.47
2022-11-17T11:42:10.439Z,98619.09
2022-11-17T11:44:49.174Z,98617.72
2022-11-17T11:47:27.534Z,98606.88
2022-11-17T11:50:02.975Z,98599.38
2022-11-17T11:52:38.030Z,98599.13
2022-11-17T11:55:17.379Z,98592.41
2022-11-17T11:57:54.579Z,98598.06
2022-11-17T12:00:21.358Z,98597.19
2022-11-17T12:02:58.645Z,98593.84
2022-11-17T12:05:25.147Z,98602.09
2022-11-17T12:08:10.201Z,98593.75
2022-11-17T12:10:59.057Z,98591.34
2022-11-17T12:13:26.513Z,98590.97
2022-11-17T12:16:40.927Z,98585.38
2022-11-17T12:19:44.785Z,98592.03
2022-11-17T12:22:29.556Z,98590.59
2022-11-17T12:25:20.888Z,98581.16
2022-11-17T12:27:47.416Z,98589.75
2022-11-17T12:30:32.693Z,98587.59
2022-11-17T12:33:09.291Z,98588.31
2022-11-17T12:35:40.437Z,98585.06
2022-11-17T12:38:12.999Z,98584.69
2022-11-17T12:40:39.567Z,98580.59
2022-11-17T12:43:33.010Z,98594.09
2022-11-17T12:46:04.221Z,98592.47
2022-11-17T12:48:35.307Z,98592.28
2022-11-17T12:51:33.239Z,98585.59
2022-11-17T12:54:06.928Z,98579.41
2022-11-17T12:57:12.071Z,98577.00
2022-11-17T13:00:03.253Z,98568.53
2022-11-17T13:02:56.027Z,98572.16
2022-11-17T13:05:28.009Z,98569.78
2022-11-17T13:08:21.106Z,98568.50
2022-11-17T13:10:47.824Z,98568.50
2022-11-17T13:13:24.684Z,98570.28
2022-11-17T13:15:53.937Z,98585.88
2022-11-17T13:18:23.469Z,98581.69
2022-11-17T13:20:50.105Z,98576.88
2022-11-17T13:23:23.419Z,98585.22
2022-11-17T13:26:55.471Z,98582.06
2022-11-17T13:29:23.103Z,98578.03
2022-11-17T13:31:49.689Z,98576.16
2022-11-17T13:34:21.212Z,98583.53
2022-11-17T13:36:59.750Z,98575.31
2022-11-17T13:39:28.056Z,98570.91
2022-11-17T13:41:56.370Z,98571.56
2022-11-17T13:44:25.627Z,98566.19
2022-11-17T13:46:52.228Z,98568.72
2022-11-17T13:49:38.131Z,98573.25
2022-11-17T13:52:40.468Z,98569.09
2022-11-17T13:55:18.107Z,98564.81
2022-11-17T13:57:55.443Z,98569.09
2022-11-17T14:00:22.545Z,98567.19
2022-11-17T14:03:06.200Z,98562.38
2022-11-17T14:05:33.238Z,98564.09
2022-11-17T14:08:13.369Z,98576.94
2022-11-17T14:10:40.143Z,98564.09
2022-11-17T14:13:06.620Z,98577.31
2022-11-17T14:15:42.870Z,98581.44
2022-11-17T14:18:30.718Z,98579.94
2022-11-17T14:21:17.269Z,98572.91
2022-11-17T14:23:45.141Z,98577.50
2022-11-17T14:26:23.435Z,98575.38
2022-11-17T14:28:51.561Z,98569.22
2022-11-17T14:31:18.757Z,98575.06
2022-11-17T14:33:45.589Z,98565.94
2022-11-17T14:36:15.843Z,98566.63
2022-11-17T14:38:44.602Z,98567.44
2022-11-17T14:41:11.257Z,98559.25
2022-11-17T14:43:37.881Z,98561.75
2022-11-17T14:46:04.530Z,98562.00
2022-11-17T14:48:31.274Z,98551.31
2022-11-17T14:50:59.712Z,98557.28
2022-11-17T14:53:26.703Z,98561.13
2022-11-17T14:55:53.670Z,98558.66
2022-11-17T14:58:20.624Z,98560.31
2022-11-17T15:00:47.313Z,98557.13
2022-11-17T15:03:13.976Z,98566.09
2022-11-17T15:05:46.147Z,98555.53
2022-11-17T15:08:13.704Z,98565.03
2022-11-17T15:10:46.528Z,98565.19
2022-11-17T15:13:13.098Z,98564.81
2022-11-17T15:15:40.607Z,98569.03
2022-11-17T15:18:07.302Z,98571.00
2022-11-17T15:20:33.830Z,98574.25
2022-11-17T15:23:03.240Z,98579.66
2022-11-17T15:25:30.730Z,98570.06
2022-11-17T15:27:57.495Z,98577.16
2022-11-17T15:30:24.202Z,98580.53
2022-11-17T15:32:50.918Z,98575.91
2022-11-17T15:35:17.452Z,98572.94
2022-11-17T15:37:43.989Z,98578.19
2022-11-17T15:40:13.947Z,98587.47
2022-11-17T15:42:43.029Z,98582.84
2022-11-17T15:45:09.961Z,98577.34
2022-11-17T15:47:36.570Z,98570.22
2022-11-17T15:50:03.131Z,98586.94
2022-11-17T15:52:56.723Z,98582.22
2022-11-17T15:55:16.152Z,98579.88
2022-11-17T15:57:43.301Z,98576.06
2022-11-17T16:00:10.266Z,98569.25
2022-11-17T16:02:36.798Z,98570.09
2022-11-17T16:05:03.589Z,98570.38
2022-11-17T16:07:30.233Z,98574.66
2022-11-17T16:09:56.923Z,98572.69
2022-11-17T16:12:23.909Z,98558.50
2022-11-17T16:14:50.411Z,98562.69
2022-11-17T16:17:17.015Z,98556.81
2022-11-17T16:19:43.798Z,98554.97
2022-11-17T16:22:10.292Z,98556.41
2022-11-17T16:24:36.790Z,98560.81
2022-11-17T16:27:03.393Z,98558.31
2022-11-17T16:29:29.935Z,98563.34
2022-11-17T16:31:56.475Z,98558.63
2022-11-17T16:34:23.052Z,98559.53
2022-11-17T16:36:49.585Z,98553.38
2022-11-17T16:39:17.314Z,98560.78
2022-11-17T16:41:50.197Z,98561.28
2022-11-17T16:44:19.339Z,98558.19
2022-11-17T16:46:48.149Z,98554.31
2022-11-17T16:49:17.168Z,98556.16
2022-11-17T16:51:49.158Z,98548.69
2022-11-17T16:54:16.189Z,98554.69
2022-11-17T16:56:42.781Z,98550.19
2022-11-17T16:59:11.070Z,98552.47
2022-11-17T17:01:37.931Z,98549.28
2022-11-17T17:04:09.940Z,98554.50
2022-11-17T17:06:40.019Z,98549.53
2022-11-17T17:09:08.455Z,98552.72
2022-11-17T17:11:36.462Z,98550.75
2022-11-17T17:14:04.761Z,98557.50
2022-11-17T17:16:33.337Z,98554.69
2022-11-17T17:19:02.026Z,98557.47
2022-11-17T17:21:29.187Z,98555.28
2022-11-17T17:23:55.747Z,98555.81
2022-11-17T17:26:24.765Z,98546.47
2022-11-17T17:28:53.919Z,98547.97
2022-11-17T17:31:22.522Z,98549.63
2022-11-17T17:33:50.530Z,98553.63
2022-11-17T17:36:22.579Z,98556.56
2022-11-17T17:38:55.106Z,98553.28
2022-11-17T17:41:24.874Z,98561.50
2022-11-17T17:44:01.239Z,98560.22
2022-11-17T17:46:31.857Z,98556.09
2022-11-17T17:48:58.643Z,98556.69
2022-11-17T17:51:27.442Z,98557.03
2022-11-17T17:53:55.939Z,98558.84
2022-11-17T17:56:23.113Z,98562.19
2022-11-17T17:58:51.605Z,98568.53
2022-11-17T18:01:24.554Z,98557.13
2022-11-17T18:03:53.729Z,98548.78
2022-11-17T18:06:21.670Z,98552.13
2022-11-17T18:08:49.268Z,98555.78
2022-11-17T18:11:20.293Z,98557.28
2022-11-17T18:13:51.830Z,98556.94
2022-11-17T18:16:26.838Z,98552.28
2022-11-17T18:18:59.135Z,98552.13
2022-11-17T18:21:26.621Z,98553.28
2022-11-17T18:23:54.425Z,98547.53
2022-11-17T18:26:26.712Z,98556.38
2022-11-17T18:28:56.284Z,98551.03
2022-11-17T18:31:25.128Z,98551.19
2022-11-17T18:33:53.345Z,98552.53
2022-11-17T18:36:21.194Z,98546.13
2022-11-17T18:38:48.000Z,98546.69
2022-11-17T18:41:17.058Z,98553.19
2022-11-17T18:43:44.257Z,98547.94
2022-11-17T18:46:13.320Z,98555.06
2022-11-17T18:48:42.159Z,98550.97
2022-11-17T18:51:20.871Z,98551.28
2022-11-17T18:53:53.215Z,98546.69
2022-11-17T18:56:22.936Z,98538.53
2022-11-17T18:58:49.886Z,98543.34
2022-11-17T19:01:24.968Z,98539.25
2022-11-17T19:03:53.570Z,98539.78
2022-11-17T19:06:22.644Z,98534.84
2022-11-17T19:08:50.302Z,98544.28
2022-11-17T19:11:18.651Z,98546.28
2022-11-17T19:13:45.906Z,98550.97
2022-11-17T19:16:15.010Z,98550.28
2022-11-17T19:18:42.051Z,98556.84
2022-11-17T19:21:10.584Z,98549.63
2022-11-17T19:23:39.579Z,98552.78
2022-11-17T19:26:08.639Z,98547.22
2022-11-17T19:28:35.765Z,98553.00
2022-11-17T19:31:07.503Z,98556.13
2022-11-17T19:33:36.031Z,98555.81
2022-11-17T19:36:11.624Z,98554.56
2022-11-17T19:38:39.587Z,98560.94
2022-11-17T19:41:08.243Z,98551.06
2022-11-17T19:43:40.318Z,98559.66
2022-11-17T19:46:12.547Z,98564.06
2022-11-17T19:48:39.834Z,98564.72
2022-11-17T19:51:28.004Z,98568.59
2022-11-17T19:53:56.222Z,98567.75
2022-11-17T19:56:24.195Z,98563.16
2022-11-17T19:58:51.263Z,98565.97
2022-11-17T20:01:20.072Z,98568.06
2022-11-17T20:03:47.205Z,98554.03
2022-11-17T20:06:16.449Z,98555.81
2022-11-17T20:08:43.992Z,98556.97
2022-11-17T20:11:16.752Z,98557.81
2022-11-17T20:13:44.300Z,98561.78
2022-11-17T20:16:14.041Z,98561.59
2022-11-17T20:18:44.847Z,98563.25
2022-11-17T20:21:14.011Z,98561.88
2022-11-17T20:23:40.993Z,98568.41
2022-11-17T20:26:11.708Z,98571.53
2022-11-17T20:28:38.914Z,98569.31
2022-11-17T20:31:10.503Z,98563.16
2022-11-17T20:33:41.772Z,98567.53
2022-11-17T20:36:11.581Z,98557.44
2022-11-17T20:38:38.081Z,98559.47
2022-11-17T20:41:05.875Z,98561.13
2022-11-17T20:43:34.194Z,98558.19
2022-11-17T20:46:01.359Z,98561.13
2022-11-17T20:48:29.157Z,98553.50
2022-11-17T20:51:01.215Z,98552.13
2022-11-17T20:53:28.427Z,98550.13
2022-11-17T20:55:56.562Z,98547.41
2022-11-17T20:58:24.124Z,98553.69
2022-11-17T21:00:50.955Z,98550.75
2022-11-17T21:03:17.993Z,98556.31
2022-11-17T21:05:44.646Z,98546.75
2022-11-17T21:08:11.567Z,98544.66
2022-11-17T21:10:38.185Z,98545.47
2022-11-17T21:13:04.772Z,98550.94
2022-11-17T21:15:31.393Z,98551.25
2022-11-17T21:18:16.515Z,98563.22
2022-11-17T21:20:43.057Z,98568.00
2022-11-17T21:23:12.457Z,98568.97
2022-11-17T21:25:39.220Z,98571.47
2022-11-17T21:28:06.041Z,98577.88
2022-11-17T21:30:33.633Z,98565.16
2022-11-17T21:33:00.207Z,98573.03
2022-11-17T21:35:26.782Z,98562.88
2022-11-17T21:37:53.353Z,98561.81
2022-11-17T21:40:19.893Z,98559.00
2022-11-17T21:42:46.479Z,98553.31
2022-11-17T21:45:13.240Z,98551.53
2022-11-17T21:47:39.872Z,98561.50
2022-11-17T21:50:07.133Z,98551.72
2022-11-17T21:52:33.714Z,98551.50
2022-11-17T21:55:00.468Z,98549.72
2022-11-17T21:57:27.212Z,98543.97
2022-11-17T21:59:54.021Z,98557.06
2022-11-17T22:02:22.147Z,98559.16
2022-11-17T22:04:48.704Z,98569.25
2022-11-17T22:07:15.336Z,98566.84
2022-11-17T22:09:41.861Z,98570.72
2022-11-17T22:12:08.401Z,98575.22
2022-11-17T22:14:34.867Z,98578.47
2022-11-17T22:17:01.710Z,98587.78
2022-11-17T22:19:29.426Z,98577.72
2022-11-17T22:21:56.097Z,98578.03
2022-11-17T22:24:22.776Z,98580.53
2022-11-17T22:26:51.441Z,98582.22
2022-11-17T22:29:21.617Z,98588.09
2022-11-17T22:31:48.983Z,98589.19
2022-11-17T22:34:16.650Z,98582.63
2022-11-17T22:36:43.242Z,98581.81
2022-11-17T22:39:09.845Z,98578.88
2022-11-17T22:41:36.434Z,98571.16
2022-11-17T22:44:03.327Z,98574.50
2022-11-17T22:46:29.841Z,98576.06
2022-11-17T22:48:56.539Z,98584.03
2022-11-17T22:51:42.838Z,98584.66
2022-11-17T22:54:09.540Z,98586.47
2022-11-17T22:56:36.119Z,98586.66
2022-11-17T22:59:02.813Z,98585.00
2022-11-17T23:01:29.377Z,98586.59
2022-11-17T23:03:55.949Z,98580.19
2022-11-17T23:06:22.863Z,98583.41
2022-11-17T23:08:50.061Z,98589.44
2022-11-17T23:14:07.713Z,98572.63
2022-11-17T23:16:34.334Z,98573.50
2022-11-17T23:19:00.857Z,98574.78
2022-11-17T23:21:27.355Z,98587.88
2022-11-17T23:23:53.939Z,98595.53
2022-11-17T23:26:20.458Z,98598.13
2022-11-17T23:28:47.124Z,98602.34
2022-11-17T23:31:15.576Z,98601.88
2022-11-17T23:33:44.571Z,98601.72
2022-11-17T23:36:16.711Z,98601.63
2022-11-17T23:38:43.269Z,98602.47
2022-11-17T23:41:13.289Z,98602.47
2022-11-17T23:43:40.440Z,98604.69
2022-11-17T23:46:13.162Z,98609.13
2022-11-17T23:48:40.415Z,98613.13
2022-11-17T23:51:12.677Z,98608.28
2022-11-17T23:53:39.448Z,98612.91
2022-11-17T23:56:07.028Z,98612.63
2022-11-17T23:58:33.681Z,98611.03
